Axis, Alabama
Current Conditions -  °F | °C
As of 2:06 AM on Sunday 23 Nov 2014 (Local Time) from KBFM Reporting Station
Overcast Overcast  
Wind Chill: 63°   Ceiling: 400
Heat Index: 63°   Visibility: 10mi
Dew Point: 62°   Wind: 7mph
Humidity: 97%   Direction: 70°ENE
Pressure: 29.88"   Gusts: NA
Location:  30.93°N, 88.03°W
Report Text: KBFM 230806Z AUTO 07006KT 10SM OVC004 17/17 A2988 RMK AO2 T01720167
Loading
Personal Weather Stations






























Interactive Weather Map New forecast layout! Learn more

10-Day Weather Forecast

Advertisements
Track Severe Weather on mobile